Time;durP1;ratioP1;P1;durP2;ratioP2;P2;SDS_P1;SDS_P2;PMS_P1;PMS_P2;Temp;Humidity;BMP_temperature;BMP_pressure;BME280_temperature;BME280_humidity;BME280_pressure;Samples;Min_cycle;Max_cycle;Signal;HPM_P1;HPM_P2
2022/04/04 00:02:20;;;;;;;30.38;21.13;;;;;;;;;;4967384;28;20125;-67
2022/04/04 00:04:46;;;;;;;26.55;20.35;;;;;;;;;;4970130;28;20035;-66
2022/04/04 00:07:12;;;;;;;23.73;19.48;;;;;;;;;;4951862;28;20462;-67
2022/04/04 00:09:38;;;;;;;24.80;19.33;;;;;;;;;;4955132;28;20043;-66
2022/04/04 00:12:05;;;;;;;24.63;18.92;;;;;;;;;;4967110;28;20034;-67
2022/04/04 00:14:31;;;;;;;26.45;20.95;;;;;;;;;;4951531;28;20071;-66
2022/04/04 00:17:00;;;;;;;24.20;19.27;;;;;;;;;;4971053;28;20712;-67
2022/04/04 00:19:26;;;;;;;28.00;20.50;;;;;;;;;;4949723;28;20042;-70
2022/04/04 00:21:52;;;;;;;27.38;21.42;;;;;;;;;;4966546;28;20038;-66
2022/04/04 00:24:18;;;;;;;28.02;21.38;;;;;;;;;;4975395;28;20310;-66
2022/04/04 00:26:44;;;;;;;24.42;19.95;;;;;;;;;;4956970;28;20057;-66
2022/04/04 00:29:10;;;;;;;26.23;19.63;;;;;;;;;;4978070;28;20509;-67
2022/04/04 00:31:36;;;;;;;26.35;21.30;;;;;;;;;;4973999;28;20042;-67
2022/04/04 00:34:02;;;;;;;25.42;18.50;;;;;;;;;;4981576;28;20046;-67
2022/04/04 00:36:28;;;;;;;26.83;20.50;;;;;;;;;;4968516;28;20070;-66
2022/04/04 00:38:54;;;;;;;35.90;24.30;;;;;;;;;;4962997;28;20078;-67
2022/04/04 00:41:19;;;;;;;28.50;21.25;;;;;;;;;;4978974;28;20064;-67
2022/04/04 00:43:45;;;;;;;27.15;21.30;;;;;;;;;;4969079;28;20154;-67
2022/04/04 00:46:11;;;;;;;28.02;21.10;;;;;;;;;;4951369;28;20501;-67
2022/04/04 00:48:37;;;;;;;34.78;21.88;;;;;;;;;;4952296;28;20041;-67
2022/04/04 00:51:02;;;;;;;26.05;20.67;;;;;;;;;;4942474;28;20054;-68
2022/04/04 00:53:30;;;;;;;27.58;20.75;;;;;;;;;;4935994;28;20085;-67
2022/04/04 00:55:55;;;;;;;28.30;20.75;;;;;;;;;;4966318;28;20499;-68
2022/04/04 00:58:22;;;;;;;25.60;20.52;;;;;;;;;;4974303;28;20043;-67
2022/04/04 01:00:49;;;;;;;25.77;19.40;;;;;;;;;;4977356;28;20035;-67
2022/04/04 01:03:15;;;;;;;29.45;21.83;;;;;;;;;;4968884;28;20034;-67
2022/04/04 01:05:44;;;;;;;26.08;20.42;;;;;;;;;;4968860;28;20041;-67
2022/04/04 01:08:16;;;;;;;26.52;20.85;;;;;;;;;;4958712;28;20054;-67
2022/04/04 01:10:42;;;;;;;25.98;20.30;;;;;;;;;;4956932;28;20035;-67
2022/04/04 01:13:10;;;;;;;24.50;19.88;;;;;;;;;;4950814;28;20034;-67
2022/04/04 01:15:36;;;;;;;28.38;21.52;;;;;;;;;;4967426;28;20330;-67
2022/04/04 01:18:03;;;;;;;25.88;20.38;;;;;;;;;;4977007;28;20045;-66
2022/04/04 01:20:29;;;;;;;24.05;20.10;;;;;;;;;;4970335;28;20105;-67
2022/04/04 01:22:55;;;;;;;30.70;20.48;;;;;;;;;;4968370;28;20042;-66
2022/04/04 01:25:32;;;;;;;24.95;19.20;;;;;;;;;;4970217;28;20033;-67
2022/04/04 01:28:00;;;;;;;26.85;20.05;;;;;;;;;;4971931;28;20061;-66
2022/04/04 01:30:27;;;;;;;29.33;21.08;;;;;;;;;;4968959;28;20121;-66
2022/04/04 01:32:54;;;;;;;22.65;18.85;;;;;;;;;;4967615;28;20053;-66
2022/04/04 01:35:22;;;;;;;22.25;18.17;;;;;;;;;;4959851;28;20038;-67
2022/04/04 01:37:48;;;;;;;24.50;20.42;;;;;;;;;;4975688;28;20509;-67
2022/04/04 01:40:15;;;;;;;27.33;19.77;;;;;;;;;;4968528;28;20039;-66
2022/04/04 01:42:41;;;;;;;26.48;19.98;;;;;;;;;;4967686;28;20125;-66
2022/04/04 01:45:09;;;;;;;24.90;19.30;;;;;;;;;;4980732;28;20031;-66
2022/04/04 01:47:36;;;;;;;25.38;20.38;;;;;;;;;;4971167;28;20035;-66
2022/04/04 01:50:03;;;;;;;26.52;19.48;;;;;;;;;;4951015;28;20097;-67
2022/04/04 01:52:29;;;;;;;24.38;19.10;;;;;;;;;;4973664;28;20042;-67
2022/04/04 01:54:55;;;;;;;26.67;21.15;;;;;;;;;;4973288;28;20045;-67
2022/04/04 01:57:20;;;;;;;22.25;18.88;;;;;;;;;;4967913;28;20039;-67
2022/04/04 01:59:46;;;;;;;23.58;19.17;;;;;;;;;;4968334;28;20078;-66
2022/04/04 02:02:12;;;;;;;22.73;19.25;;;;;;;;;;4978663;28;20080;-66
2022/04/04 02:04:38;;;;;;;26.80;19.48;;;;;;;;;;4979006;28;20035;-66
2022/04/04 02:07:07;;;;;;;25.02;18.98;;;;;;;;;;4969280;28;20433;-66
2022/04/04 02:09:33;;;;;;;23.45;20.17;;;;;;;;;;4987899;23;20161;-66
2022/04/04 02:11:59;;;;;;;25.73;18.60;;;;;;;;;;4982302;28;20049;-67
2022/04/04 02:14:24;;;;;;;27.20;20.95;;;;;;;;;;4984637;28;20046;-66
2022/04/04 02:16:50;;;;;;;30.45;19.48;;;;;;;;;;4981568;28;20034;-66
2022/04/04 02:19:17;;;;;;;33.38;19.75;;;;;;;;;;4989860;28;20390;-66
2022/04/04 02:21:44;;;;;;;27.15;19.83;;;;;;;;;;4978514;28;20393;-66
2022/04/04 02:24:10;;;;;;;23.65;20.50;;;;;;;;;;4986917;28;20026;-66
2022/04/04 02:26:36;;;;;;;28.40;20.13;;;;;;;;;;4993025;28;20034;-66
2022/04/04 02:29:03;;;;;;;26.38;20.08;;;;;;;;;;4987217;28;20030;-66
2022/04/04 02:31:29;;;;;;;25.77;19.58;;;;;;;;;;4984975;28;20044;-66
2022/04/04 02:33:55;;;;;;;31.70;20.27;;;;;;;;;;4993491;28;20038;-67
2022/04/04 02:36:21;;;;;;;29.38;19.20;;;;;;;;;;4983101;28;20079;-67
2022/04/04 02:38:47;;;;;;;23.00;18.67;;;;;;;;;;4983885;28;20042;-67
2022/04/04 02:41:13;;;;;;;24.58;19.17;;;;;;;;;;4989779;28;20029;-67
2022/04/04 02:43:39;;;;;;;25.27;18.98;;;;;;;;;;4988868;28;20465;-67
2022/04/04 02:46:05;;;;;;;22.98;19.38;;;;;;;;;;4984718;28;20134;-67
2022/04/04 02:48:31;;;;;;;20.83;18.50;;;;;;;;;;4998693;28;20032;-67
2022/04/04 02:50:57;;;;;;;23.33;18.08;;;;;;;;;;4995957;28;20497;-67
2022/04/04 02:53:23;;;;;;;22.40;18.65;;;;;;;;;;4987065;28;20038;-67
2022/04/04 02:58:33;;;;;;;23.90;18.65;;;;;;;;;;4978859;28;20042;-67
2022/04/04 03:00:58;;;;;;;23.40;18.98;;;;;;;;;;4982099;28;20045;-67
2022/04/04 03:03:24;;;;;;;21.83;17.25;;;;;;;;;;4982619;28;20117;-67
2022/04/04 03:05:49;;;;;;;23.73;17.95;;;;;;;;;;4989615;28;20433;-67
2022/04/04 03:08:15;;;;;;;29.88;20.08;;;;;;;;;;4985417;28;20038;-67
2022/04/04 03:10:41;;;;;;;21.30;16.33;;;;;;;;;;4982541;28;20125;-67
2022/04/04 03:13:07;;;;;;;22.88;17.85;;;;;;;;;;4992465;28;20073;-67
2022/04/04 03:15:34;;;;;;;20.65;16.63;;;;;;;;;;4993610;28;20076;-67
2022/04/04 03:18:02;;;;;;;18.63;16.70;;;;;;;;;;4984731;28;20043;-67
2022/04/04 03:20:28;;;;;;;21.88;17.52;;;;;;;;;;4977946;28;20073;-67
2022/04/04 03:22:56;;;;;;;22.10;17.75;;;;;;;;;;4995030;28;20086;-67
2022/04/04 03:25:22;;;;;;;26.23;19.40;;;;;;;;;;4991537;28;20041;-67
2022/04/04 03:27:48;;;;;;;29.77;20.05;;;;;;;;;;4987002;28;20046;-67
2022/04/04 03:30:19;;;;;;;20.15;15.63;;;;;;;;;;4987345;28;20537;-67
2022/04/04 03:32:46;;;;;;;18.95;16.98;;;;;;;;;;4997251;28;20121;-67
2022/04/04 03:35:17;;;;;;;18.88;16.05;;;;;;;;;;4982884;28;20116;-67
2022/04/04 03:37:45;;;;;;;23.13;18.63;;;;;;;;;;4988331;28;20042;-67
2022/04/04 03:40:16;;;;;;;24.90;17.90;;;;;;;;;;4999388;28;20034;-67
2022/04/04 03:42:43;;;;;;;25.13;18.17;;;;;;;;;;4977870;28;20106;-67
2022/04/04 03:45:14;;;;;;;21.58;16.77;;;;;;;;;;4979006;28;20119;-67
2022/04/04 03:47:41;;;;;;;16.42;14.00;;;;;;;;;;4997431;28;20033;-67
2022/04/04 03:50:08;;;;;;;19.50;17.48;;;;;;;;;;4982547;28;20394;-67
2022/04/04 03:52:34;;;;;;;20.98;17.60;;;;;;;;;;4981436;28;20039;-67
2022/04/04 03:55:01;;;;;;;23.33;18.25;;;;;;;;;;4989811;28;20034;-66
2022/04/04 03:57:27;;;;;;;26.85;18.33;;;;;;;;;;4985881;28;20069;-67
2022/04/04 03:59:53;;;;;;;25.35;17.83;;;;;;;;;;4987486;28;20086;-67
2022/04/04 04:02:19;;;;;;;26.83;19.92;;;;;;;;;;4979942;28;20173;-67
2022/04/04 04:04:44;;;;;;;29.08;17.90;;;;;;;;;;4990421;28;20030;-67
2022/04/04 04:07:14;;;;;;;22.70;16.98;;;;;;;;;;4996493;28;20035;-66
2022/04/04 04:09:40;;;;;;;26.52;18.67;;;;;;;;;;4987800;28;20030;-67
2022/04/04 04:12:06;;;;;;;21.38;17.88;;;;;;;;;;4985486;28;20431;-66
2022/04/04 04:14:31;;;;;;;24.65;17.67;;;;;;;;;;4982513;28;20094;-66
2022/04/04 04:16:57;;;;;;;21.83;17.15;;;;;;;;;;4984980;28;20053;-66
2022/04/04 04:22:07;;;;;;;27.48;17.83;;;;;;;;;;4985950;28;20124;-66
2022/04/04 04:24:33;;;;;;;22.45;17.27;;;;;;;;;;4991719;28;20085;-66
2022/04/04 04:26:58;;;;;;;20.15;18.00;;;;;;;;;;4997474;28;20052;-66
2022/04/04 04:29:24;;;;;;;20.35;17.83;;;;;;;;;;4980018;28;20121;-66
2022/04/04 04:31:51;;;;;;;23.38;18.08;;;;;;;;;;4981086;28;20038;-66
2022/04/04 04:34:17;;;;;;;21.50;17.58;;;;;;;;;;4986088;28;20025;-66
2022/04/04 04:36:42;;;;;;;22.23;18.38;;;;;;;;;;4990482;28;20536;-66
2022/04/04 04:39:09;;;;;;;29.90;21.35;;;;;;;;;;4979756;28;20034;-66
2022/04/04 04:41:35;;;;;;;21.50;16.73;;;;;;;;;;4996344;28;20036;-65
2022/04/04 04:44:03;;;;;;;31.25;18.65;;;;;;;;;;4980740;28;20034;-66
2022/04/04 04:46:30;;;;;;;21.52;17.95;;;;;;;;;;4992189;28;20037;-65
2022/04/04 04:48:56;;;;;;;23.75;17.45;;;;;;;;;;4979740;28;20046;-66
2022/04/04 04:51:22;;;;;;;24.10;18.88;;;;;;;;;;4985179;28;20026;-66
2022/04/04 04:53:47;;;;;;;33.70;18.80;;;;;;;;;;4986353;28;20053;-66
2022/04/04 04:56:14;;;;;;;25.67;19.65;;;;;;;;;;4983966;28;20038;-66
2022/04/04 04:58:39;;;;;;;21.50;17.55;;;;;;;;;;4983534;28;20038;-66
2022/04/04 05:01:05;;;;;;;21.30;18.50;;;;;;;;;;4997493;28;20034;-67
2022/04/04 05:03:31;;;;;;;22.30;17.23;;;;;;;;;;5008496;28;20041;-65
2022/04/04 05:05:57;;;;;;;20.27;17.30;;;;;;;;;;5007577;28;20184;-65
2022/04/04 05:08:23;;;;;;;17.00;13.18;;;;;;;;;;4991188;28;20046;-66
2022/04/04 05:10:48;;;;;;;23.27;17.20;;;;;;;;;;4987697;28;20121;-65
2022/04/04 05:13:14;;;;;;;22.70;18.00;;;;;;;;;;4982164;28;20173;-65
2022/04/04 05:15:40;;;;;;;24.33;18.95;;;;;;;;;;4986614;28;20061;-64
2022/04/04 05:18:06;;;;;;;26.08;20.35;;;;;;;;;;4983994;28;20031;-65
2022/04/04 05:20:32;;;;;;;19.65;17.15;;;;;;;;;;4962416;28;20053;-65
2022/04/04 05:22:57;;;;;;;24.42;20.95;;;;;;;;;;4976617;28;20042;-65
2022/04/04 05:25:23;;;;;;;21.23;17.30;;;;;;;;;;4991572;28;20576;-64
2022/04/04 05:27:50;;;;;;;21.85;17.80;;;;;;;;;;4986982;28;20038;-64
2022/04/04 05:30:17;;;;;;;23.67;17.75;;;;;;;;;;4980076;28;20034;-65
2022/04/04 05:32:43;;;;;;;14.90;13.48;;;;;;;;;;4990426;28;20042;-65
2022/04/04 05:35:11;;;;;;;17.35;15.60;;;;;;;;;;4974868;28;20038;-63
2022/04/04 05:37:37;;;;;;;20.98;18.00;;;;;;;;;;4968977;28;20062;-64
2022/04/04 05:40:06;;;;;;;19.58;17.55;;;;;;;;;;4990185;28;20514;-64
2022/04/04 05:42:32;;;;;;;21.73;16.52;;;;;;;;;;4973040;28;20039;-64
2022/04/04 05:44:57;;;;;;;27.05;18.70;;;;;;;;;;4969196;28;20035;-64
2022/04/04 05:47:23;;;;;;;19.90;17.02;;;;;;;;;;4985306;28;20040;-64
2022/04/04 05:49:49;;;;;;;24.02;17.83;;;;;;;;;;4981411;28;20044;-64
2022/04/04 05:52:15;;;;;;;20.58;16.17;;;;;;;;;;4988786;28;20073;-64
2022/04/04 05:54:53;;;;;;;19.10;16.05;;;;;;;;;;4977536;28;20042;-64
2022/04/04 05:57:28;;;;;;;21.88;15.95;;;;;;;;;;4977835;28;20038;-63
2022/04/04 05:59:54;;;;;;;21.80;17.13;;;;;;;;;;4992446;28;20041;-63
2022/04/04 06:02:21;;;;;;;17.38;15.57;;;;;;;;;;4976523;28;20509;-63
2022/04/04 06:04:47;;;;;;;22.10;17.88;;;;;;;;;;4969055;28;20417;-66
2022/04/04 06:07:13;;;;;;;18.73;16.48;;;;;;;;;;4975549;28;20381;-64
2022/04/04 06:09:38;;;;;;;21.50;16.33;;;;;;;;;;4985948;28;20129;-64
2022/04/04 06:12:04;;;;;;;19.10;17.13;;;;;;;;;;4973231;28;20118;-65
2022/04/04 06:14:30;;;;;;;20.85;17.08;;;;;;;;;;4972874;28;20046;-65
2022/04/04 06:16:55;;;;;;;20.40;17.15;;;;;;;;;;4982933;28;20042;-64
2022/04/04 06:19:21;;;;;;;21.23;16.60;;;;;;;;;;4993878;28;20051;-65
2022/04/04 06:21:47;;;;;;;20.35;17.50;;;;;;;;;;4972184;28;20038;-65
2022/04/04 06:24:12;;;;;;;19.92;17.13;;;;;;;;;;4978681;28;20104;-65
2022/04/04 06:26:39;;;;;;;21.42;17.52;;;;;;;;;;4988995;28;20428;-65
2022/04/04 06:29:09;;;;;;;31.45;20.05;;;;;;;;;;4984335;28;20065;-65
2022/04/04 06:31:36;;;;;;;20.48;18.00;;;;;;;;;;4972989;28;20073;-65
2022/04/04 06:34:04;;;;;;;20.73;18.52;;;;;;;;;;4991429;28;20050;-65
2022/04/04 06:36:30;;;;;;;27.20;18.33;;;;;;;;;;4980049;28;20038;-66
2022/04/04 06:38:57;;;;;;;20.25;17.60;;;;;;;;;;4988542;28;20042;-66
2022/04/04 06:41:22;;;;;;;19.70;17.55;;;;;;;;;;4991296;28;20424;-66
2022/04/04 06:43:50;;;;;;;20.95;17.52;;;;;;;;;;4984575;28;20489;-65
2022/04/04 06:46:16;;;;;;;21.70;18.27;;;;;;;;;;4990793;28;20035;-65
2022/04/04 06:48:42;;;;;;;21.90;18.13;;;;;;;;;;4972170;28;20109;-65
2022/04/04 06:51:09;;;;;;;18.42;16.40;;;;;;;;;;4972287;28;20039;-65
2022/04/04 06:53:35;;;;;;;18.92;16.90;;;;;;;;;;4964445;28;20316;-65
2022/04/04 06:56:01;;;;;;;26.10;21.25;;;;;;;;;;4985680;28;20039;-65
2022/04/04 06:58:27;;;;;;;22.70;17.58;;;;;;;;;;4974158;28;20042;-66
2022/04/04 07:00:53;;;;;;;20.45;18.02;;;;;;;;;;4971982;28;20041;-65
2022/04/04 07:03:18;;;;;;;19.92;17.80;;;;;;;;;;4984750;28;20034;-65
2022/04/04 07:05:44;;;;;;;19.80;17.60;;;;;;;;;;4987833;28;20066;-67
2022/04/04 07:08:10;;;;;;;18.02;16.33;;;;;;;;;;4992231;28;20133;-65
2022/04/04 07:10:36;;;;;;;17.50;15.80;;;;;;;;;;4999592;28;20042;-65
2022/04/04 07:13:04;;;;;;;20.95;16.52;;;;;;;;;;4982024;28;20099;-65
2022/04/04 07:15:30;;;;;;;17.05;15.52;;;;;;;;;;4988516;28;20133;-65
2022/04/04 07:17:56;;;;;;;17.52;15.77;;;;;;;;;;4984524;28;20168;-65
2022/04/04 07:20:22;;;;;;;18.02;16.17;;;;;;;;;;4971162;28;20034;-66
2022/04/04 07:22:47;;;;;;;19.95;16.58;;;;;;;;;;4971770;28;20240;-66
2022/04/04 07:25:14;;;;;;;18.92;16.95;;;;;;;;;;4984662;28;20022;-65
2022/04/04 07:27:41;;;;;;;16.85;15.25;;;;;;;;;;4996438;28;20026;-65
2022/04/04 07:30:09;;;;;;;17.77;16.15;;;;;;;;;;4991622;28;20034;-64
2022/04/04 07:32:36;;;;;;;19.77;17.75;;;;;;;;;;4953941;28;20043;-65
2022/04/04 07:35:03;;;;;;;17.25;15.65;;;;;;;;;;4971284;28;20117;-65
2022/04/04 07:37:29;;;;;;;19.30;17.45;;;;;;;;;;4994056;28;20029;-65
2022/04/04 07:39:55;;;;;;;17.42;15.93;;;;;;;;;;4990439;28;20514;-65
2022/04/04 07:42:20;;;;;;;19.27;17.30;;;;;;;;;;4990010;28;20402;-65
2022/04/04 07:44:46;;;;;;;18.98;17.17;;;;;;;;;;4991286;28;20038;-65
2022/04/04 07:47:11;;;;;;;18.02;16.08;;;;;;;;;;4977871;28;20081;-65
2022/04/04 07:49:37;;;;;;;19.05;17.20;;;;;;;;;;4971112;28;20042;-65
2022/04/04 07:52:03;;;;;;;18.00;16.30;;;;;;;;;;4983578;28;20133;-65
2022/04/04 07:54:29;;;;;;;17.65;16.05;;;;;;;;;;4985199;28;20045;-65
2022/04/04 07:56:56;;;;;;;18.30;16.48;;;;;;;;;;4983775;28;20445;-65
2022/04/04 07:59:23;;;;;;;16.55;15.13;;;;;;;;;;4990923;28;20033;-65
2022/04/04 08:01:48;;;;;;;17.95;16.20;;;;;;;;;;4989546;28;20031;-66
2022/04/04 08:04:14;;;;;;;17.50;15.90;;;;;;;;;;4970907;28;20191;-66
2022/04/04 08:06:39;;;;;;;18.25;16.73;;;;;;;;;;4983150;28;20263;-68
2022/04/04 08:09:05;;;;;;;17.02;15.32;;;;;;;;;;4990946;28;20042;-67
2022/04/04 08:11:30;;;;;;;17.30;15.80;;;;;;;;;;4971265;28;20035;-67
2022/04/04 08:13:56;;;;;;;17.13;15.35;;;;;;;;;;4970972;28;20561;-67
2022/04/04 08:16:26;;;;;;;17.92;16.08;;;;;;;;;;4987838;28;20591;-68
2022/04/04 08:18:53;;;;;;;16.05;14.65;;;;;;;;;;4977829;28;20353;-67
2022/04/04 08:21:19;;;;;;;16.85;15.00;;;;;;;;;;4970643;28;20536;-67
2022/04/04 08:23:45;;;;;;;16.70;15.27;;;;;;;;;;4986530;28;20121;-68
2022/04/04 08:26:10;;;;;;;15.88;14.43;;;;;;;;;;4982462;28;20452;-69
2022/04/04 08:28:37;;;;;;;16.33;14.77;;;;;;;;;;4984017;28;20046;-67
2022/04/04 08:31:03;;;;;;;15.80;14.45;;;;;;;;;;4975065;28;20035;-67
2022/04/04 08:33:29;;;;;;;16.17;14.77;;;;;;;;;;4991934;28;20412;-66
2022/04/04 08:35:57;;;;;;;17.30;14.75;;;;;;;;;;4970625;28;20117;-66
2022/04/04 08:38:22;;;;;;;17.25;15.85;;;;;;;;;;4984343;28;20125;-66
2022/04/04 08:40:49;;;;;;;16.30;14.90;;;;;;;;;;4972308;28;20137;-65
2022/04/04 08:43:17;;;;;;;16.92;15.52;;;;;;;;;;4973491;28;20042;-65
2022/04/04 08:45:44;;;;;;;15.27;13.98;;;;;;;;;;4983627;28;20042;-66
2022/04/04 08:48:11;;;;;;;16.27;14.73;;;;;;;;;;4989275;28;20049;-67
2022/04/04 08:50:38;;;;;;;16.85;15.25;;;;;;;;;;4988846;28;20208;-66
2022/04/04 08:53:07;;;;;;;16.75;15.35;;;;;;;;;;4962322;28;20113;-66
2022/04/04 08:55:35;;;;;;;16.00;14.43;;;;;;;;;;4982175;28;20418;-67
2022/04/04 08:58:01;;;;;;;16.40;14.93;;;;;;;;;;4987314;28;20486;-67
2022/04/04 09:00:28;;;;;;;16.70;15.15;;;;;;;;;;4996571;28;20040;-66
2022/04/04 09:03:04;;;;;;;16.27;14.68;;;;;;;;;;4970110;28;20039;-66
2022/04/04 09:05:34;;;;;;;15.68;14.23;;;;;;;;;;4970026;28;20031;-67
2022/04/04 09:08:00;;;;;;;14.50;13.18;;;;;;;;;;4974116;28;20133;-66
2022/04/04 09:10:40;;;;;;;15.70;14.40;;;;;;;;;;4990897;28;20041;-66
2022/04/04 09:13:12;;;;;;;16.02;14.73;;;;;;;;;;4970252;28;20046;-66
2022/04/04 09:15:53;;;;;;;16.35;14.95;;;;;;;;;;4969538;28;20035;-66
2022/04/04 09:18:41;;;;;;;15.50;14.10;;;;;;;;;;4988517;28;20076;-66
2022/04/04 09:21:17;;;;;;;16.45;15.13;;;;;;;;;;4977846;28;20723;-66
2022/04/04 09:23:46;;;;;;;15.98;14.68;;;;;;;;;;4971827;28;20105;-67
2022/04/04 09:26:30;;;;;;;15.20;14.02;;;;;;;;;;4980123;28;20034;-67
2022/04/04 09:29:09;;;;;;;16.08;14.80;;;;;;;;;;4992329;28;20097;-67
2022/04/04 09:31:36;;;;;;;16.60;15.20;;;;;;;;;;4969912;28;20477;-66
2022/04/04 09:34:04;;;;;;;17.75;16.35;;;;;;;;;;4974235;28;20032;-66
2022/04/04 09:36:31;;;;;;;14.93;13.82;;;;;;;;;;4992510;28;20536;-67
2022/04/04 09:39:05;;;;;;;14.90;13.88;;;;;;;;;;4970806;28;20436;-68
2022/04/04 09:41:32;;;;;;;15.48;14.27;;;;;;;;;;4981878;28;20042;-67
2022/04/04 09:44:01;;;;;;;15.48;14.27;;;;;;;;;;4973611;28;20049;-67
2022/04/04 09:46:35;;;;;;;15.38;14.18;;;;;;;;;;4990397;28;20504;-67
2022/04/04 09:49:16;;;;;;;15.30;14.05;;;;;;;;;;4969258;28;20050;-67
2022/04/04 09:51:48;;;;;;;16.00;14.73;;;;;;;;;;4969404;28;20466;-67
2022/04/04 09:54:23;;;;;;;17.05;15.77;;;;;;;;;;4976437;28;20051;-67
2022/04/04 09:56:53;;;;;;;16.15;14.82;;;;;;;;;;4982803;28;20066;-67
2022/04/04 09:59:19;;;;;;;14.65;13.50;;;;;;;;;;4969027;28;20051;-67
2022/04/04 10:01:46;;;;;;;16.00;14.90;;;;;;;;;;4970550;28;20044;-67
2022/04/04 10:04:13;;;;;;;15.63;14.43;;;;;;;;;;4990625;28;20096;-67
2022/04/04 10:06:41;;;;;;;15.23;14.02;;;;;;;;;;4973967;28;20035;-67
2022/04/04 10:09:07;;;;;;;15.23;13.88;;;;;;;;;;4973803;28;20056;-66
2022/04/04 10:11:35;;;;;;;16.20;14.90;;;;;;;;;;4983859;28;20488;-67
2022/04/04 10:14:01;;;;;;;16.08;14.93;;;;;;;;;;4990738;28;20093;-67
2022/04/04 10:16:28;;;;;;;14.50;13.40;;;;;;;;;;4975932;28;20042;-67
2022/04/04 10:18:55;;;;;;;15.15;13.95;;;;;;;;;;4975258;28;20043;-67
2022/04/04 10:21:21;;;;;;;14.77;13.68;;;;;;;;;;4982106;28;20050;-67
2022/04/04 10:23:50;;;;;;;14.70;13.60;;;;;;;;;;4998440;28;20104;-68
2022/04/04 10:26:19;;;;;;;15.32;14.13;;;;;;;;;;4989750;28;20501;-68
2022/04/04 10:28:46;;;;;;;;;;;;;;;;;;4973565;28;20050;-66
2022/04/04 10:31:15;;;;;;;15.10;13.90;;;;;;;;;;4971155;28;19924;-67
2022/04/04 10:33:41;;;;;;;15.52;14.27;;;;;;;;;;4975909;28;20039;-67
2022/04/04 10:36:20;;;;;;;15.32;14.25;;;;;;;;;;4967177;28;20096;-67
2022/04/04 10:38:45;;;;;;;14.80;13.68;;;;;;;;;;4976871;28;20117;-67
2022/04/04 10:41:14;;;;;;;15.50;14.40;;;;;;;;;;4989549;28;20109;-66
2022/04/04 10:43:45;;;;;;;15.00;14.00;;;;;;;;;;4987472;28;20038;-67
2022/04/04 10:46:17;;;;;;;16.00;14.80;;;;;;;;;;4988989;28;20438;-66
2022/04/04 10:48:54;;;;;;;16.42;15.00;;;;;;;;;;4988445;28;20045;-67
2022/04/04 10:51:27;;;;;;;17.38;15.82;;;;;;;;;;4969119;28;20066;-67
2022/04/04 10:53:55;;;;;;;15.77;14.57;;;;;;;;;;4972186;28;20699;-66
2022/04/04 10:56:27;;;;;;;16.42;15.23;;;;;;;;;;4985716;28;20045;-67
2022/04/04 10:59:13;;;;;;;18.23;16.90;;;;;;;;;;4991005;28;20143;-66
2022/04/04 11:01:40;;;;;;;17.50;16.10;;;;;;;;;;4971468;28;20055;-67
2022/04/04 11:04:05;;;;;;;17.75;16.08;;;;;;;;;;5000213;28;20038;-67
2022/04/04 11:09:32;;;;;;;16.10;14.90;;;;;;;;;;4981571;28;20038;-66
2022/04/04 11:12:00;;;;;;;17.80;16.40;;;;;;;;;;4990297;28;20038;-67
2022/04/04 11:14:37;;;;;;;16.35;14.98;;;;;;;;;;4969837;28;20049;-67
2022/04/04 11:17:08;;;;;;;16.70;15.40;;;;;;;;;;4969255;28;20105;-66
2022/04/04 11:19:47;;;;;;;16.60;15.27;;;;;;;;;;4993234;28;20489;-67
2022/04/04 11:22:18;;;;;;;15.43;14.32;;;;;;;;;;4976019;28;20037;-69
2022/04/04 11:24:51;;;;;;;15.15;13.80;;;;;;;;;;4976170;28;20533;-67
2022/04/04 11:27:18;;;;;;;15.02;13.93;;;;;;;;;;4996379;28;20105;-67
2022/04/04 11:29:44;;;;;;;15.77;14.63;;;;;;;;;;4999857;28;20051;-67
2022/04/04 11:32:16;;;;;;;15.88;14.55;;;;;;;;;;4953777;28;20074;-67
2022/04/04 11:34:45;;;;;;;16.42;15.23;;;;;;;;;;4987027;28;20552;-67
2022/04/04 11:37:18;;;;;;;15.20;14.10;;;;;;;;;;4991077;28;20460;-67
2022/04/04 11:39:47;;;;;;;16.85;15.65;;;;;;;;;;4972722;28;20494;-67
2022/04/04 11:42:14;;;;;;;15.88;14.70;;;;;;;;;;4970773;28;20043;-67
2022/04/04 11:44:47;;;;;;;16.17;14.95;;;;;;;;;;4984149;28;20033;-66
2022/04/04 11:47:15;;;;;;;14.60;13.60;;;;;;;;;;4985461;28;20137;-66
2022/04/04 11:49:44;;;;;;;14.48;13.38;;;;;;;;;;4970759;28;20046;-67
2022/04/04 11:52:15;;;;;;;15.27;14.10;;;;;;;;;;4970430;28;20478;-67
2022/04/04 11:54:45;;;;;;;16.08;14.82;;;;;;;;;;4993080;28;20030;-66
2022/04/04 11:57:11;;;;;;;15.40;14.23;;;;;;;;;;4996776;28;20029;-67
2022/04/04 11:59:44;;;;;;;15.32;14.10;;;;;;;;;;4976164;28;20047;-67
2022/04/04 12:02:13;;;;;;;15.43;14.30;;;;;;;;;;4989684;28;20056;-67
2022/04/04 12:04:40;;;;;;;15.93;14.82;;;;;;;;;;4989227;28;20034;-67
2022/04/04 12:07:07;;;;;;;15.57;14.38;;;;;;;;;;4975886;28;20049;-67
2022/04/04 12:09:34;;;;;;;15.27;14.07;;;;;;;;;;4987866;28;20453;-67
2022/04/04 12:12:08;;;;;;;15.15;14.05;;;;;;;;;;4990698;28;20045;-66
2022/04/04 12:14:40;;;;;;;16.50;15.15;;;;;;;;;;4969264;28;20074;-66
2022/04/04 12:17:14;;;;;;;15.80;14.60;;;;;;;;;;4968861;28;20031;-67
2022/04/04 12:19:44;;;;;;;15.45;14.20;;;;;;;;;;4972934;28;20121;-67
2022/04/04 12:24:59;;;;;;;15.45;14.43;;;;;;;;;;4984560;28;20026;-67
2022/04/04 12:27:24;;;;;;;;;;;;;;;;;;4984090;28;20038;-67
2022/04/04 12:30:05;;;;;;;16.85;15.45;;;;;;;;;;4984357;28;20119;-68
2022/04/04 12:32:38;;;;;;;16.25;15.02;;;;;;;;;;4988502;28;20034;-67
2022/04/04 12:35:07;;;;;;;15.73;14.60;;;;;;;;;;4977207;28;20379;-67
2022/04/04 12:37:33;;;;;;;16.33;15.07;;;;;;;;;;4987383;28;20382;-67
2022/04/04 12:40:21;;;;;;;15.27;14.18;;;;;;;;;;4985972;28;20046;-67
2022/04/04 12:42:51;;;;;;;16.42;15.25;;;;;;;;;;4970765;28;20041;-68
2022/04/04 12:45:18;;;;;;;17.38;16.08;;;;;;;;;;4975478;28;20450;-68
2022/04/04 12:47:53;;;;;;;15.88;14.60;;;;;;;;;;4992275;28;20077;-68
2022/04/04 12:50:21;;;;;;;16.33;14.82;;;;;;;;;;4985935;28;20068;-68
2022/04/04 12:53:03;;;;;;;16.60;15.20;;;;;;;;;;4985264;28;20039;-67
2022/04/04 12:55:30;;;;;;;17.10;15.55;;;;;;;;;;4980619;28;20035;-66
2022/04/04 12:58:13;;;;;;;15.57;14.48;;;;;;;;;;4987472;28;20049;-66
2022/04/04 13:00:40;;;;;;;14.57;13.38;;;;;;;;;;4986039;28;20046;-68
2022/04/04 13:03:18;;;;;;;15.38;13.98;;;;;;;;;;4970344;28;20558;-66
2022/04/04 13:05:48;;;;;;;15.70;14.60;;;;;;;;;;4971694;28;20536;-66
2022/04/04 13:08:32;;;;;;;16.70;15.40;;;;;;;;;;4984113;28;20532;-66
2022/04/04 13:11:06;;;;;;;17.20;15.90;;;;;;;;;;4968116;28;20137;-66
2022/04/04 13:13:34;;;;;;;16.15;14.85;;;;;;;;;;4975841;28;20121;-67
2022/04/04 13:16:00;;;;;;;16.80;15.50;;;;;;;;;;4961757;28;20405;-67
2022/04/04 13:18:26;;;;;;;15.43;14.32;;;;;;;;;;4967992;28;20554;-68
2022/04/04 13:20:52;;;;;;;16.98;15.57;;;;;;;;;;4968425;28;20045;-68
2022/04/04 13:23:18;;;;;;;15.90;14.70;;;;;;;;;;4973982;28;20042;-67
2022/04/04 13:25:45;;;;;;;15.48;14.27;;;;;;;;;;4989269;28;20037;-67
2022/04/04 13:28:11;;;;;;;16.20;15.00;;;;;;;;;;4975024;28;20038;-67
2022/04/04 13:30:39;;;;;;;17.70;16.30;;;;;;;;;;4977965;28;20048;-67
2022/04/04 13:33:06;;;;;;;17.27;15.97;;;;;;;;;;4989576;28;20038;-67
2022/04/04 13:35:34;;;;;;;16.80;15.57;;;;;;;;;;4977984;28;20501;-68
2022/04/04 13:37:59;;;;;;;16.63;15.40;;;;;;;;;;4978238;28;20051;-68
2022/04/04 13:40:25;;;;;;;16.83;15.30;;;;;;;;;;4984150;28;20035;-68
2022/04/04 13:42:50;;;;;;;13.98;12.98;;;;;;;;;;4985521;28;20558;-67
2022/04/04 13:45:16;;;;;;;15.40;13.98;;;;;;;;;;4967624;28;20039;-69
2022/04/04 13:47:42;;;;;;;16.50;15.20;;;;;;;;;;4979570;28;20035;-68
2022/04/04 13:50:11;;;;;;;15.82;14.63;;;;;;;;;;4987295;28;20132;-68
2022/04/04 13:52:40;;;;;;;15.45;14.20;;;;;;;;;;4968121;28;20568;-68
2022/04/04 13:55:08;;;;;;;15.73;14.63;;;;;;;;;;4977255;28;20045;-68
2022/04/04 13:57:34;;;;;;;16.00;14.60;;;;;;;;;;4985927;28;20041;-68
2022/04/04 14:00:00;;;;;;;16.50;15.20;;;;;;;;;;4986844;28;20835;-68
2022/04/04 14:02:26;;;;;;;15.40;14.13;;;;;;;;;;4987068;28;20141;-68
2022/04/04 14:04:51;;;;;;;16.25;15.05;;;;;;;;;;4983975;28;20065;-68
2022/04/04 14:07:17;;;;;;;16.05;14.68;;;;;;;;;;4987252;28;20040;-68
2022/04/04 14:09:42;;;;;;;16.10;14.82;;;;;;;;;;4989655;28;20426;-68
2022/04/04 14:12:09;;;;;;;15.95;14.35;;;;;;;;;;4987376;28;20038;-67
2022/04/04 14:14:36;;;;;;;16.90;15.35;;;;;;;;;;4981008;28;20367;-67
2022/04/04 14:17:03;;;;;;;15.77;14.57;;;;;;;;;;4989549;28;20030;-68
2022/04/04 14:19:29;;;;;;;15.35;13.85;;;;;;;;;;4973848;28;20039;-67
2022/04/04 14:21:55;;;;;;;14.68;13.48;;;;;;;;;;4969089;28;20039;-67
2022/04/04 14:24:21;;;;;;;16.10;14.90;;;;;;;;;;4988024;28;20056;-67
2022/04/04 14:26:47;;;;;;;15.40;14.27;;;;;;;;;;4986795;28;20086;-68
2022/04/04 14:29:12;;;;;;;15.57;14.32;;;;;;;;;;4969104;28;20046;-67
2022/04/04 14:31:38;;;;;;;16.15;14.75;;;;;;;;;;4978249;28;20126;-67
2022/04/04 14:34:04;;;;;;;16.13;14.80;;;;;;;;;;4996841;28;20149;-67